UNTT/TOF METAR and TAF weather

Enter ICAO airport designator
Station Type Date Time Source
UNTT METAR 2023/02/04 03:30 UTC NOAA

UNTT 040330Z 00000MPS CAVOK M17/M20 Q1024 R21/820240 NOSIG RMK QFE753


Station Type Date Time Source
UNTT Decoded METAR 2023/02/04 03:30 UTC NOAA

Station name not available
Feb 03, 2023 - 10:30 PM EST / 2023.02.04 0330 UTC
Wind: Calm:0
Visibility: greater than 7 mile(s):0
Temperature: 1 F (-17 C)
Dew Point: -4 F (-20 C)
Relative Humidity: 77%
Pressure (altimeter): 30.24 in. Hg (1024 hPa)
ob: UNTT 040330Z 00000MPS CAVOK M17/M20 Q1024 R21/820240 NOSIG RMK QFE753
cycle: 3

Station Type Date Time Source
UNTT TAF UTC NOAA

Error!

Example: see airport list